Pagina principale
METAR-TAF:

METAR-TAF

Aeroporti :

Aeroporto Internazionale di Keflavík

Keflavík, Islanda

latitudine: 63-58N, longitudine: 022-36W, altezza: 52 m

Osservazione

Il bollettino è stato emesso 1 ora e 12 minuti fa, alle 03:00 UTC
Vento 12 kt da nord, variando fra nord/nord-ovest e nord/nord-est
Temperature -4°C
Umidità 74%
Pressione 1024 hPa
Visibilità 10 km o più
Poco nuvoloso ad un'altezza di 2500 ft

METAR: BIKF 020300Z 36012KT 330V030 9999 FEW025 M04/M08 Q1024

Ora: 04:12 (04:12 UTC)

Previsione

Il bollettino è stato emesso 3 ore e 11 minuti fa, alle 01:01 UTC
Previsione valida dal 02 alle 03 UTC al 03 alle 03 UTC
Vento 12 kt da nord-est
Visibilità 10 km o più
nessuna nube inferiore a 1500 m e nessun cumulonembo
Evoluzione graduale
dal 02 alle 04 UTC al 02 alle 06 UTC
Vento 5 kt da est

TAF: BIKF 020101Z 0203/0303 04012KT CAVOK TXM01/0215Z TNM07/0210Z BECMG 0204/0206 09005KT

Osservazioni e previsioni meteorologiche di più di 4000 aeroporti (messaggi METAR e TAF).

Le stazioni disponibili sono rappresentate dai dischi gialli e rossi sulla carta.

Puntare il mouse per vedere il nome della stazione.

Clicca sopra per visualizzare le osservazioni e previsioni meteorologiche.

Per cambiare la mappa : fare clic sui pulsanti verdi con una croce nera per ingrandire, il pulsante verde con un trattino per diminuire, o sulla freccia verde per le mappe adiacenti.


METAR-TAF: